createdAt,value
2019-04-01T00:01:52.324Z,0.20
2019-04-01T00:04:20.391Z,0.30
2019-04-01T00:06:48.425Z,0.33
2019-04-01T00:09:16.447Z,0.43
2019-04-01T00:11:44.399Z,0.20
2019-04-01T00:14:12.368Z,0.40
2019-04-01T00:16:40.404Z,0.50
2019-04-01T00:19:08.400Z,0.50
2019-04-01T00:21:36.403Z,0.20
2019-04-01T00:24:04.445Z,0.50
2019-04-01T00:26:32.474Z,0.30
2019-04-01T00:29:00.447Z,0.20
2019-04-01T00:31:28.407Z,0.30
2019-04-01T00:33:56.385Z,0.30
2019-04-01T00:36:24.459Z,0.37
2019-04-01T00:38:52.510Z,0.20
2019-04-01T00:41:20.516Z,0.30
2019-04-01T00:44:13.455Z,0.37
2019-04-01T00:46:41.671Z,0.40
2019-04-01T00:49:09.786Z,0.30
2019-04-01T00:51:37.820Z,0.30
2019-04-01T00:54:05.858Z,0.30
2019-04-01T00:56:33.832Z,0.30
2019-04-01T00:59:01.845Z,0.40
2019-04-01T01:01:30.030Z,0.40
2019-04-01T01:03:58.036Z,0.40
2019-04-01T01:06:26.137Z,0.23
2019-04-01T01:08:54.206Z,0.40
2019-04-01T01:11:22.349Z,0.40
2019-04-01T01:13:52.974Z,0.30
2019-04-01T01:16:20.947Z,0.40
2019-04-01T01:18:49.012Z,0.47
2019-04-01T01:21:16.965Z,0.30
2019-04-01T01:23:45.049Z,0.20
2019-04-01T01:26:13.118Z,0.30
2019-04-01T01:28:41.136Z,0.20
2019-04-01T01:31:09.163Z,0.20
2019-04-01T01:33:37.109Z,0.40
2019-04-01T01:36:05.102Z,0.30
2019-04-01T01:38:33.111Z,0.30
2019-04-01T01:41:01.099Z,0.20
2019-04-01T01:43:29.136Z,0.50
2019-04-01T01:45:57.107Z,0.47
2019-04-01T01:48:25.078Z,0.10
2019-04-01T01:50:53.179Z,0.40
2019-04-01T01:53:21.192Z,0.30
2019-04-01T01:55:49.129Z,0.20
2019-04-01T01:58:17.041Z,0.50
2019-04-01T02:00:45.088Z,0.40
2019-04-01T02:03:13.085Z,0.33
2019-04-01T02:05:41.103Z,0.30
2019-04-01T02:08:09.167Z,0.33
2019-04-01T02:10:37.166Z,0.27
2019-04-01T02:13:05.183Z,0.20
2019-04-01T02:15:33.186Z,0.40
2019-04-01T02:18:01.223Z,0.13
2019-04-01T02:20:29.268Z,0.20
2019-04-01T02:22:57.183Z,0.40
2019-04-01T02:25:25.185Z,0.40
2019-04-01T02:27:53.187Z,0.30
2019-04-01T02:30:21.258Z,0.33
2019-04-01T02:32:49.264Z,0.50
2019-04-01T02:35:17.345Z,0.30
2019-04-01T02:37:45.379Z,0.30
2019-04-01T02:40:13.465Z,0.27
2019-04-01T02:42:41.551Z,0.40
2019-04-01T02:45:09.533Z,0.30
2019-04-01T02:47:37.505Z,0.40
2019-04-01T02:50:05.544Z,0.40
2019-04-01T02:52:33.639Z,0.40
2019-04-01T02:55:06.345Z,0.30
2019-04-01T02:57:31.486Z,0.40
2019-04-01T02:59:59.553Z,0.33
2019-04-01T03:02:27.515Z,0.40
2019-04-01T03:04:55.908Z,0.30
2019-04-01T03:07:23.909Z,0.37
2019-04-01T03:09:51.934Z,0.40
2019-04-01T03:12:19.902Z,0.40
2019-04-01T03:14:47.919Z,0.33
2019-04-01T03:17:15.953Z,0.47
2019-04-01T03:19:43.969Z,0.30
2019-04-01T03:22:12.250Z,0.40
2019-04-01T03:24:40.258Z,0.50
2019-04-01T03:27:08.214Z,0.40
2019-04-01T03:29:36.297Z,0.60
2019-04-01T03:32:04.231Z,0.90
2019-04-01T03:34:32.276Z,0.50
2019-04-01T03:37:00.233Z,0.90
2019-04-01T03:39:28.444Z,0.70
2019-04-01T03:41:56.452Z,0.50
2019-04-01T03:44:24.448Z,0.40
2019-04-01T03:46:52.476Z,0.60
2019-04-01T03:49:20.514Z,0.93
2019-04-01T03:51:48.538Z,0.73
2019-04-01T03:54:16.527Z,0.80
2019-04-01T03:56:44.552Z,0.60
2019-04-01T03:59:12.524Z,0.80
2019-04-01T04:01:40.658Z,0.53
2019-04-01T04:04:08.738Z,0.50
2019-04-01T04:06:36.776Z,0.40
2019-04-01T04:09:06.080Z,0.60
2019-04-01T04:11:34.079Z,0.40
2019-04-01T04:14:02.113Z,0.33
2019-04-01T04:16:30.167Z,0.50
2019-04-01T04:18:58.240Z,0.50
2019-04-01T04:21:26.235Z,0.43
2019-04-01T04:23:54.254Z,0.53
2019-04-01T04:26:22.241Z,0.40
2019-04-01T04:28:50.168Z,0.50
2019-04-01T04:31:18.330Z,0.60
2019-04-01T04:33:46.497Z,0.63
2019-04-01T04:36:17.309Z,0.90
2019-04-01T04:38:45.445Z,0.50
2019-04-01T04:41:13.532Z,0.50
2019-04-01T04:43:41.644Z,0.50
2019-04-01T04:46:09.628Z,0.70
2019-04-01T04:48:37.560Z,0.67
2019-04-01T04:51:05.543Z,0.60
2019-04-01T04:53:33.574Z,0.75
2019-04-01T04:56:01.575Z,1.00
2019-04-01T04:58:29.695Z,0.83
2019-04-01T05:00:57.795Z,0.83
2019-04-01T05:03:25.901Z,1.00
2019-04-01T05:05:53.914Z,0.80
2019-04-01T05:08:21.861Z,1.10
2019-04-01T05:10:49.831Z,0.93
2019-04-01T05:13:17.731Z,1.00
2019-04-01T05:15:45.788Z,1.17
2019-04-01T05:18:13.791Z,0.80
2019-04-01T05:20:42.311Z,0.70
2019-04-01T05:23:10.959Z,2.13
2019-04-01T05:25:39.760Z,0.93
2019-04-01T05:28:09.116Z,1.03
2019-04-01T05:30:37.153Z,0.97
2019-04-01T05:33:05.216Z,1.50
2019-04-01T05:35:35.581Z,1.20
2019-04-01T05:38:04.095Z,1.17
2019-04-01T05:40:32.124Z,1.13
2019-04-01T05:43:00.145Z,1.50
2019-04-01T05:45:28.232Z,1.27
2019-04-01T05:47:56.295Z,1.00
2019-04-01T05:50:24.248Z,0.87
2019-04-01T05:52:52.283Z,1.00
2019-04-01T05:55:20.289Z,1.20
2019-04-01T05:57:48.332Z,1.10
2019-04-01T06:00:22.533Z,1.10
2019-04-01T06:02:50.527Z,0.93
2019-04-01T06:05:18.571Z,1.20
2019-04-01T06:07:46.963Z,0.80
2019-04-01T06:10:15.094Z,0.90
2019-04-01T06:12:43.341Z,0.80
2019-04-01T06:15:11.420Z,0.80
2019-04-01T06:17:39.544Z,0.50
2019-04-01T06:20:07.759Z,0.70
2019-04-01T06:22:35.815Z,0.70
2019-04-01T06:25:04.032Z,0.63
2019-04-01T06:27:32.452Z,0.60
2019-04-01T06:30:00.881Z,0.70
2019-04-01T06:32:28.979Z,0.90
2019-04-01T06:34:57.275Z,0.80
2019-04-01T06:37:25.326Z,0.70
2019-04-01T06:39:53.330Z,0.73
2019-04-01T06:42:21.355Z,0.90
2019-04-01T06:44:49.908Z,0.67
2019-04-01T06:47:17.857Z,0.77
2019-04-01T06:49:45.833Z,0.70
2019-04-01T06:52:13.810Z,0.60
2019-04-01T06:54:41.771Z,0.60
2019-04-01T06:57:12.601Z,0.70
2019-04-01T06:59:40.612Z,0.90
2019-04-01T07:02:08.724Z,0.50
2019-04-01T07:04:37.339Z,0.50
2019-04-01T07:07:18.254Z,0.63
2019-04-01T07:09:35.562Z,0.70
2019-04-01T07:12:03.685Z,0.77
2019-04-01T07:14:31.684Z,2.77
2019-04-01T07:16:59.727Z,3.00
2019-04-01T07:19:27.712Z,1.10
2019-04-01T07:21:55.721Z,1.77
2019-04-01T07:24:23.908Z,1.03
2019-04-01T07:26:51.933Z,1.30
2019-04-01T07:29:19.934Z,1.00
2019-04-01T07:31:47.923Z,1.30
2019-04-01T07:34:16.002Z,0.90
2019-04-01T07:36:44.108Z,0.77
2019-04-01T07:39:12.088Z,0.50
2019-04-01T07:41:40.147Z,0.70
2019-04-01T07:44:08.195Z,0.70
2019-04-01T07:46:36.195Z,1.17
2019-04-01T07:49:04.302Z,0.90
2019-04-01T07:51:32.296Z,0.80
2019-04-01T07:54:00.302Z,0.63
2019-04-01T07:56:28.293Z,0.90
2019-04-01T07:58:56.454Z,0.90
2019-04-01T08:01:24.506Z,0.90
2019-04-01T08:03:52.488Z,0.87
2019-04-01T08:06:20.551Z,0.70
2019-04-01T08:08:48.665Z,0.80
2019-04-01T08:11:16.884Z,0.70
2019-04-01T08:13:44.821Z,0.67
2019-04-01T08:16:12.781Z,0.83
2019-04-01T08:18:40.845Z,0.67
2019-04-01T08:21:08.991Z,0.67
2019-04-01T08:23:37.240Z,0.90
2019-04-01T08:26:05.252Z,0.80
2019-04-01T08:28:33.299Z,0.87
2019-04-01T08:31:01.299Z,0.90
2019-04-01T08:33:29.323Z,0.80
2019-04-01T08:35:57.467Z,1.07
2019-04-01T08:38:25.511Z,0.80
2019-04-01T08:40:53.501Z,0.80
2019-04-01T08:43:21.452Z,0.90
2019-04-01T08:45:49.356Z,0.53
2019-04-01T08:48:17.329Z,0.80
2019-04-01T08:50:45.463Z,0.63
2019-04-01T08:53:13.506Z,0.80
2019-04-01T08:55:42.584Z,0.97
2019-04-01T08:58:10.603Z,0.77
2019-04-01T09:00:38.620Z,0.90
2019-04-01T09:03:06.630Z,0.67
2019-04-01T09:05:34.557Z,0.80
2019-04-01T09:08:02.537Z,0.70
2019-04-01T09:10:30.568Z,0.60
2019-04-01T09:12:58.729Z,0.83
2019-04-01T09:15:26.764Z,0.60
2019-04-01T09:17:54.702Z,0.80
2019-04-01T09:20:22.698Z,0.70
2019-04-01T09:22:50.710Z,0.80
2019-04-01T09:25:18.671Z,0.63
2019-04-01T09:27:46.600Z,0.83
2019-04-01T09:30:18.497Z,0.77
2019-04-01T09:32:44.841Z,1.00
2019-04-01T09:35:12.774Z,1.10
2019-04-01T09:37:40.845Z,1.40
2019-04-01T09:40:09.072Z,1.30
2019-04-01T09:42:37.036Z,1.30
2019-04-01T09:45:05.656Z,1.20
2019-04-01T09:47:33.679Z,1.33
2019-04-01T09:50:01.607Z,1.33
2019-04-01T09:52:29.689Z,1.33
2019-04-01T09:54:57.613Z,1.57
2019-04-01T09:57:25.600Z,1.10
2019-04-01T09:59:53.631Z,1.30
2019-04-01T10:02:31.812Z,1.03
2019-04-01T10:04:51.564Z,1.20
2019-04-01T10:07:19.533Z,0.80
2019-04-01T10:09:47.518Z,0.70
2019-04-01T10:12:15.505Z,1.00
2019-04-01T10:14:43.498Z,0.80
2019-04-01T10:17:11.464Z,1.37
2019-04-01T10:19:39.415Z,1.00
2019-04-01T10:22:07.452Z,1.00
2019-04-01T10:24:35.364Z,0.83
2019-04-01T10:27:03.393Z,1.17
2019-04-01T10:29:31.420Z,0.67
2019-04-01T10:31:59.447Z,0.70
2019-04-01T10:34:27.435Z,0.93
2019-04-01T10:36:55.337Z,0.53
2019-04-01T10:39:23.416Z,0.63
2019-04-01T10:41:51.436Z,0.80
2019-04-01T10:44:19.484Z,0.90
2019-04-01T10:46:47.679Z,0.83
2019-04-01T10:49:15.754Z,0.60
2019-04-01T10:51:43.767Z,0.80
2019-04-01T10:54:11.760Z,0.60
2019-04-01T10:56:39.841Z,0.80
2019-04-01T10:59:07.864Z,0.80
2019-04-01T11:01:35.853Z,0.63
2019-04-01T11:04:03.863Z,1.00
2019-04-01T11:06:31.935Z,0.73
2019-04-01T11:08:59.997Z,0.80
2019-04-01T11:11:27.934Z,1.00
2019-04-01T11:13:55.866Z,0.77
2019-04-01T11:16:23.779Z,0.80
2019-04-01T11:18:51.789Z,0.70
2019-04-01T11:21:19.716Z,0.90
2019-04-01T11:23:47.663Z,0.80
2019-04-01T11:26:15.793Z,0.80
2019-04-01T11:28:43.836Z,0.60
2019-04-01T11:31:11.908Z,0.80
2019-04-01T11:33:40.001Z,0.60
2019-04-01T11:36:08.382Z,0.60
2019-04-01T11:38:36.417Z,1.10
2019-04-01T11:41:04.384Z,0.63
2019-04-01T11:43:35.363Z,0.90
2019-04-01T11:46:02.045Z,0.73
2019-04-01T11:48:30.105Z,0.83
2019-04-01T11:50:58.252Z,0.60
2019-04-01T11:53:26.185Z,0.77
2019-04-01T11:55:54.219Z,0.73
2019-04-01T11:58:22.261Z,0.70
2019-04-01T12:00:50.602Z,0.80
2019-04-01T12:03:19.070Z,0.90
2019-04-01T12:05:47.895Z,0.97
2019-04-01T12:08:15.936Z,0.70
2019-04-01T12:10:43.921Z,0.50
2019-04-01T12:13:12.000Z,0.50
2019-04-01T12:15:40.044Z,0.63
2019-04-01T12:18:08.109Z,0.70
2019-04-01T12:20:36.227Z,0.50
2019-04-01T12:23:04.326Z,0.80
2019-04-01T12:25:32.398Z,0.70
2019-04-01T12:28:00.587Z,0.80
2019-04-01T12:30:28.536Z,0.60
2019-04-01T12:32:56.512Z,0.73
2019-04-01T12:35:24.555Z,0.73
2019-04-01T12:37:52.549Z,0.63
2019-04-01T12:40:20.589Z,0.70
2019-04-01T12:42:50.840Z,0.40
2019-04-01T12:45:18.298Z,0.60
2019-04-01T12:47:46.374Z,0.73
2019-04-01T12:50:14.381Z,0.60
2019-04-01T12:52:42.435Z,0.60
2019-04-01T12:55:10.484Z,0.63
2019-04-01T12:57:38.442Z,0.53
2019-04-01T13:00:07.161Z,0.60
2019-04-01T13:02:35.223Z,0.50
2019-04-01T13:05:03.239Z,0.57
2019-04-01T13:07:31.160Z,0.50
2019-04-01T13:09:59.546Z,1.05
2019-04-01T13:12:27.744Z,0.50
2019-04-01T13:14:55.827Z,0.70
2019-04-01T13:17:24.084Z,1.00
2019-04-01T13:19:52.273Z,0.40
2019-04-01T13:22:20.276Z,0.57
2019-04-01T13:24:48.216Z,0.53
2019-04-01T13:27:16.171Z,0.53
2019-04-01T13:29:44.519Z,0.50
2019-04-01T13:32:12.477Z,0.53
2019-04-01T13:34:40.461Z,0.60
2019-04-01T13:37:08.483Z,0.50
2019-04-01T13:39:36.608Z,0.50
2019-04-01T13:42:04.668Z,0.50
2019-04-01T13:44:37.251Z,0.57
2019-04-01T13:47:02.589Z,0.60
2019-04-01T13:49:30.731Z,0.50
2019-04-01T13:51:59.576Z,0.50
2019-04-01T13:54:28.476Z,0.50
2019-04-01T13:56:56.440Z,0.40
2019-04-01T13:59:24.448Z,0.70
2019-04-01T14:01:52.348Z,0.50
2019-04-01T14:04:20.413Z,0.60
2019-04-01T14:06:48.417Z,0.50
2019-04-01T14:09:16.492Z,0.40
2019-04-01T14:11:44.583Z,0.80
2019-04-01T14:14:12.557Z,0.70
2019-04-01T14:16:41.659Z,0.70
2019-04-01T14:19:09.835Z,0.50
2019-04-01T14:21:37.820Z,0.60
2019-04-01T14:24:05.892Z,0.33
2019-04-01T14:26:33.915Z,0.40
2019-04-01T14:29:01.950Z,0.40
2019-04-01T14:31:31.000Z,0.60
2019-04-01T14:33:58.924Z,0.70
2019-04-01T14:36:26.836Z,0.43
2019-04-01T14:38:54.832Z,0.50
2019-04-01T14:41:22.866Z,0.70
2019-04-01T14:43:50.888Z,1.00
2019-04-01T14:46:18.896Z,0.60
2019-04-01T14:48:46.876Z,0.60
2019-04-01T14:51:14.988Z,0.47
2019-04-01T14:53:42.994Z,0.60
2019-04-01T14:56:11.092Z,0.40
2019-04-01T14:58:39.124Z,0.50
2019-04-01T15:01:07.033Z,0.50
2019-04-01T15:03:35.004Z,0.60
2019-04-01T15:06:03.003Z,0.60
2019-04-01T15:08:31.032Z,0.63
2019-04-01T15:10:59.124Z,0.40
2019-04-01T15:13:27.096Z,0.50
2019-04-01T15:15:55.080Z,0.60
2019-04-01T15:18:25.304Z,0.70
2019-04-01T15:20:53.272Z,0.50
2019-04-01T15:23:24.798Z,0.50
2019-04-01T15:25:54.243Z,0.50
2019-04-01T15:28:20.529Z,0.30
2019-04-01T15:30:48.499Z,0.50
2019-04-01T15:33:16.420Z,0.83
2019-04-01T15:35:44.404Z,0.40
2019-04-01T15:38:12.380Z,0.40
2019-04-01T15:40:40.382Z,0.77
2019-04-01T15:43:08.398Z,0.40
2019-04-01T15:45:36.923Z,0.50
2019-04-01T15:48:05.131Z,0.40
2019-04-01T15:50:33.239Z,0.53
2019-04-01T15:53:01.293Z,0.60
2019-04-01T15:55:29.293Z,0.63
2019-04-01T15:57:57.457Z,0.67
2019-04-01T16:00:25.612Z,0.40
2019-04-01T16:02:53.546Z,0.60
2019-04-01T16:05:21.524Z,0.43
2019-04-01T16:07:49.964Z,0.40
2019-04-01T16:10:17.951Z,0.27
2019-04-01T16:12:45.884Z,0.50
2019-04-01T16:15:13.912Z,0.40
2019-04-01T16:17:41.907Z,0.53
2019-04-01T16:20:10.367Z,0.50
2019-04-01T16:22:38.293Z,0.60
2019-04-01T16:25:06.418Z,0.67
2019-04-01T16:27:34.380Z,0.50
2019-04-01T16:30:02.424Z,0.60
2019-04-01T16:32:30.457Z,0.50
2019-04-01T16:34:58.520Z,0.40
2019-04-01T16:37:26.545Z,0.40
2019-04-01T16:39:54.798Z,0.80
2019-04-01T16:42:22.886Z,0.60
2019-04-01T16:44:53.963Z,0.50
2019-04-01T16:47:20.499Z,0.70
2019-04-01T16:49:48.507Z,0.87
2019-04-01T16:52:16.507Z,0.67
2019-04-01T16:54:46.603Z,0.70
2019-04-01T16:57:14.563Z,0.60
2019-04-01T16:59:42.557Z,0.60
2019-04-01T17:02:18.003Z,1.00
2019-04-01T17:04:40.368Z,0.80
2019-04-01T17:07:08.399Z,1.23
2019-04-01T17:09:36.431Z,1.10
2019-04-01T17:12:04.778Z,0.80
2019-04-01T17:14:32.816Z,0.60
2019-04-01T17:17:00.851Z,0.60
2019-04-01T17:19:28.844Z,0.80
2019-04-01T17:21:57.117Z,0.67
2019-04-01T17:24:25.142Z,0.70
2019-04-01T17:27:01.979Z,0.70
2019-04-01T17:29:31.842Z,0.50
2019-04-01T17:31:59.697Z,0.70
2019-04-01T17:34:27.701Z,0.83
2019-04-01T17:36:55.776Z,0.60
2019-04-01T17:39:23.782Z,0.70
2019-04-01T17:41:51.781Z,0.90
2019-04-01T17:44:19.765Z,0.90
2019-04-01T17:46:47.808Z,0.70
2019-04-01T17:49:15.766Z,0.70
2019-04-01T17:51:43.782Z,0.80
2019-04-01T17:54:11.878Z,0.67
2019-04-01T17:56:39.925Z,0.73
2019-04-01T17:59:08.001Z,0.60
2019-04-01T18:01:36.023Z,0.57
2019-04-01T18:04:04.227Z,0.67
2019-04-01T18:06:32.228Z,0.70
2019-04-01T18:09:00.296Z,1.13
2019-04-01T18:11:28.247Z,0.80
2019-04-01T18:13:56.264Z,0.40
2019-04-01T18:16:25.544Z,0.70
2019-04-01T18:18:53.560Z,0.60
2019-04-01T18:21:21.640Z,0.60
2019-04-01T18:23:49.693Z,0.70
2019-04-01T18:26:18.021Z,0.60
2019-04-01T18:28:46.284Z,0.43
2019-04-01T18:31:14.291Z,0.60
2019-04-01T18:33:55.531Z,0.70
2019-04-01T18:36:12.026Z,0.60
2019-04-01T18:38:41.080Z,0.60
2019-04-01T18:41:09.252Z,0.80
2019-04-01T18:43:37.422Z,0.60
2019-04-01T18:46:05.552Z,0.50
2019-04-01T18:48:33.569Z,0.60
2019-04-01T18:51:01.907Z,0.70
2019-04-01T18:53:29.942Z,0.80
2019-04-01T18:55:57.931Z,0.70
2019-04-01T18:58:26.830Z,0.60
2019-04-01T19:00:54.972Z,0.70
2019-04-01T19:03:24.138Z,0.60
2019-04-01T19:05:52.511Z,1.00
2019-04-01T19:08:20.563Z,0.80
2019-04-01T19:11:02.145Z,0.40
2019-04-01T19:13:25.944Z,0.50
2019-04-01T19:15:57.089Z,0.60
2019-04-01T19:18:25.714Z,0.50
2019-04-01T19:20:56.922Z,0.60
2019-04-01T19:23:23.511Z,0.50
2019-04-01T19:25:51.571Z,0.50
2019-04-01T19:28:19.712Z,0.80
2019-04-01T19:30:47.786Z,0.60
2019-04-01T19:33:16.269Z,0.50
2019-04-01T19:35:44.274Z,0.30
2019-04-01T19:38:12.375Z,0.60
2019-04-01T19:40:40.566Z,0.40
2019-04-01T19:43:08.722Z,0.47
2019-04-01T19:45:36.847Z,0.43
2019-04-01T19:48:04.946Z,0.60
2019-04-01T19:50:33.002Z,0.60
2019-04-01T19:53:02.678Z,0.40
2019-04-01T19:55:30.735Z,1.27
2019-04-01T19:57:58.721Z,0.50
2019-04-01T20:00:28.361Z,0.40
2019-04-01T20:02:56.624Z,0.50
2019-04-01T20:05:24.929Z,0.80
2019-04-01T20:07:52.947Z,0.67
2019-04-01T20:10:20.908Z,0.40
2019-04-01T20:12:50.805Z,0.50
2019-04-01T20:15:18.968Z,0.53
2019-04-01T20:17:47.054Z,0.60
2019-04-01T20:20:15.260Z,0.50
2019-04-01T20:22:43.290Z,0.57
2019-04-01T20:25:11.527Z,0.40
2019-04-01T20:27:39.432Z,0.50
2019-04-01T20:30:09.135Z,0.50
2019-04-01T20:32:37.333Z,0.50
2019-04-01T20:35:05.900Z,0.60
2019-04-01T20:37:33.929Z,0.80
2019-04-01T20:40:01.940Z,0.50
2019-04-01T20:42:30.010Z,1.00
2019-04-01T20:44:57.940Z,0.60
2019-04-01T20:47:26.006Z,0.40
2019-04-01T20:49:54.013Z,0.47
2019-04-01T20:52:21.944Z,0.63
2019-04-01T20:54:49.964Z,0.60
2019-04-01T20:57:18.017Z,0.50
2019-04-01T20:59:45.972Z,0.90
2019-04-01T21:02:14.043Z,0.83
2019-04-01T21:04:42.120Z,0.70
2019-04-01T21:07:10.225Z,0.33
2019-04-01T21:09:38.313Z,0.70
2019-04-01T21:12:08.153Z,0.43
2019-04-01T21:14:35.957Z,0.73
2019-04-01T21:17:03.961Z,0.63
2019-04-01T21:19:31.941Z,0.47
2019-04-01T21:21:59.864Z,0.60
2019-04-01T21:24:27.770Z,0.70
2019-04-01T21:26:55.955Z,0.70
2019-04-01T21:29:24.272Z,0.50
2019-04-01T21:31:52.752Z,0.30
2019-04-01T21:34:20.812Z,0.50
2019-04-01T21:36:48.808Z,0.70
2019-04-01T21:39:16.855Z,0.40
2019-04-01T21:41:44.999Z,0.50
2019-04-01T21:44:13.016Z,0.50
2019-04-01T21:46:41.068Z,0.50
2019-04-01T21:49:09.008Z,0.43
2019-04-01T21:51:36.981Z,0.50
2019-04-01T21:54:05.044Z,0.40
2019-04-01T21:56:33.083Z,0.40
2019-04-01T21:59:01.156Z,0.57
2019-04-01T22:01:29.500Z,0.50
2019-04-01T22:03:57.591Z,0.70
2019-04-01T22:06:25.625Z,0.50
2019-04-01T22:08:53.603Z,0.53
2019-04-01T22:11:21.559Z,0.60
2019-04-01T22:13:49.606Z,0.53
2019-04-01T22:16:18.145Z,0.60
2019-04-01T22:18:47.449Z,0.60
2019-04-01T22:21:15.470Z,0.33
2019-04-01T22:23:43.518Z,0.47
2019-04-01T22:26:11.593Z,0.60
2019-04-01T22:28:39.621Z,0.43
2019-04-01T22:31:07.782Z,0.70
2019-04-01T22:33:35.745Z,0.57
2019-04-01T22:36:03.738Z,0.70
2019-04-01T22:38:31.806Z,0.40
2019-04-01T22:41:00.250Z,0.40
2019-04-01T22:43:28.321Z,0.50
2019-04-01T22:45:56.451Z,0.57
2019-04-01T22:48:24.527Z,0.70
2019-04-01T22:50:52.586Z,0.40
2019-04-01T22:53:20.594Z,0.80
2019-04-01T22:55:48.700Z,0.57
2019-04-01T22:58:17.168Z,0.63
2019-04-01T23:00:46.177Z,0.63
2019-04-01T23:03:14.873Z,0.53
2019-04-01T23:05:42.921Z,0.53
2019-04-01T23:08:11.068Z,0.80
2019-04-01T23:10:39.085Z,0.60
2019-04-01T23:13:07.142Z,0.50
2019-04-01T23:15:35.271Z,0.60
2019-04-01T23:18:03.278Z,0.60
2019-04-01T23:20:33.225Z,0.40
2019-04-01T23:23:01.050Z,0.60
2019-04-01T23:25:29.084Z,0.60
2019-04-01T23:27:57.214Z,0.67
2019-04-01T23:30:25.216Z,0.50
2019-04-01T23:32:53.278Z,0.70
2019-04-01T23:35:21.351Z,0.60
2019-04-01T23:37:49.376Z,0.50
2019-04-01T23:40:17.491Z,0.50
2019-04-01T23:42:45.643Z,0.50
2019-04-01T23:45:13.912Z,0.70
2019-04-01T23:47:41.961Z,0.60
2019-04-01T23:50:10.225Z,0.60
2019-04-01T23:52:38.283Z,0.53
2019-04-01T23:55:06.351Z,0.60
2019-04-01T23:57:34.403Z,0.67
